Flight Track Log - Related Links

Times and Time Zones

All times are in EDT time to prevent confusion due to time zone crossing. See the DAL8887 flight status page for this flight to view local times or setup timezone preferences in your user account.


Time Position Orientation Groundspeed Altitude Reporting Facility
EDT Latitude Longitude Course Direction KTS MPH feet Rate Location/Type
Sun 09:33:36 PM 25.8086 -80.1847 North 261 300 5,300  Level Miami Center
Sun 09:34:43 PM 25.8797 -80.1728 North 296 341 7,000 844 Climbing Miami Center
Sun 09:35:44 PM 25.9433 -80.2347 319° Northwest 291 335 7,100 1,397 Climbing Miami Center
Sun 09:36:39 PM 25.9983 -80.2872 319° Northwest 300 345 9,700 2,638 Climbing Miami Center
Sun 09:38:05 PM 26.1136 -80.3553 332° Northwest 355 409 13,300 2,877 Climbing Miami Center
Sun 09:39:05 PM 26.2106 -80.4158 331° Northwest 372 428 16,700 3,550 Climbing Miami Center
Sun 09:40:05 PM 26.3239 -80.4772 334° Northwest 405 466 20,400 3,150 Climbing Miami Center
Sun 09:41:05 PM 26.4228 -80.5244 337° Northwest 423 487 23,000 2,600 Climbing Miami Center
Sun 09:42:05 PM 26.5508 -80.5864 337° Northwest 441 507 25,600 2,508 Climbing Miami Center
Sun 09:43:07 PM 26.6542 -80.6269 341° North 447 514 28,100 2,439 Climbing Miami Center
Sun 09:44:08 PM 26.7722 -80.6678 343° North 447 514 30,600 1,765 Climbing Miami Center
Sun 09:45:06 PM 26.8900 -80.7114 342° North 441 507 31,600 1,311 Climbing Miami Center
Sun 09:46:07 PM 27.0142 -80.7528 343° North 447 514 33,200 1,866 Climbing Miami Center
Sun 09:47:05 PM 27.1383 -80.7964 343° North 452 520 35,300 2,067 Climbing Miami Center
Sun 09:48:06 PM 27.2583 -80.8381 343° North 457 526 37,300 1,805 Climbing Miami Center
Sun 09:49:08 PM 27.3825 -80.8750 345° North 452 520 39,000 1,550 Climbing Miami Center
Sun 09:50:06 PM 27.5022 -80.9189 342° North 452 520 40,400 1,008 Climbing Miami Center
Sun 09:51:07 PM 27.6222 -80.9583 344° North 452 520 41,000 252 Climbing Miami Center
Sun 09:52:05 PM 27.7442 -81.0003 343° North 452 520 40,900  Descending Miami Center
Sun 09:53:08 PM 27.8600 -81.0419 342° North 452 520 41,000 49 Climbing Miami Center
Sun 09:54:08 PM 27.9819 -81.0842 343° North 452 520 41,000  Level Miami Center
Sun 09:55:08 PM 28.1139 -81.1361 341° North 452 520 41,000  Level Miami Center
Sun 09:56:06 PM 28.2211 -81.1731 343° North 452 520 41,000  Level Miami Center
Sun 09:57:05 PM 28.3408 -81.2156 343° North 452 520 41,000  Level Miami Center
Sun 09:58:13 PM 28.4756 -81.2631 343° North 463 533 41,000 -47 Level Jacksonville Center
Sun 09:59:13 PM 28.5950 -81.3083 342° North 452 520 40,900 -50 Descending Jacksonville Center
Sun 10:00:13 PM 28.7144 -81.3492 343° North 447 514 40,900 50 Level Jacksonville Center
Sun 10:01:13 PM 28.8342 -81.3969 341° North 447 514 41,000 50 Climbing Jacksonville Center
Sun 10:02:13 PM 28.9556 -81.4403 343° North 447 514 41,000  Level Jacksonville Center
Sun 10:03:13 PM 29.0731 -81.4836 342° North 447 514 41,000 -50 Level Jacksonville Center
Sun 10:04:13 PM 29.1944 -81.5294 342° North 447 514 40,900  Descending Jacksonville Center
Sun 10:05:13 PM 29.3119 -81.5756 341° North 447 514 41,000 50 Climbing Jacksonville Center
Sun 10:06:12 PM 29.4314 -81.6169 343° North 447 514 41,000  Level Jacksonville Center
Sun 10:07:13 PM 29.5528 -81.6656 341° North 447 514 41,000  Level Jacksonville Center
Sun 10:08:12 PM 29.6744 -81.7094 343° North 447 514 41,000  Level Jacksonville Center
Sun 10:09:13 PM 29.7939 -81.7558 341° North 447 514 41,000  Level Jacksonville Center
Sun 10:10:13 PM 29.9153 -81.8000 342° North 447 514 41,000  Level Jacksonville Center
Sun 10:11:12 PM 30.0367 -81.8417 343° North 447 514 41,000  Level Jacksonville Center
Sun 10:12:13 PM 30.1581 -81.8861 342° North 447 514 41,000  Level Jacksonville Center
Sun 10:13:12 PM 30.2797 -81.9353 341° North 447 514 41,000 -50 Level Jacksonville Center
Sun 10:14:13 PM 30.4011 -81.9797 342° North 447 514 40,900 -50 Descending Jacksonville Center
Sun 10:15:13 PM 30.5183 -82.0244 342° North 447 514 40,900  Level Jacksonville Center
Sun 10:16:13 PM 30.6503 -82.0811 340° North 457 526 40,900 50 Level Jacksonville Center
Sun 10:17:12 PM 30.7694 -82.1286 341° North 452 520 41,000 50 Climbing Jacksonville Center
Sun 10:18:12 PM 30.8889 -82.1736 342° North 452 520 41,000 -50 Level Jacksonville Center
Sun 10:19:12 PM 31.0100 -82.2186 342° North 452 520 40,900  Descending Jacksonville Center
Sun 10:20:12 PM 31.1314 -82.2639 342° North 447 514 41,000 30 Climbing Jacksonville Center
Sun 10:22:30 PM 31.3972 -82.3675 342° North 454 522 41,000  Level Atlanta Center
Sun 10:23:30 PM 31.5167 -82.4164 341° North 454 522 41,000 -350 Level Atlanta Center
Sun 10:24:30 PM 31.6383 -82.4631 342° North 454 522 40,300 -850 Descending Atlanta Center
Sun 10:25:30 PM 31.7581 -82.5100 342° North 449 517 39,300 -1,000 Descending Atlanta Center
Sun 10:26:30 PM 31.8922 -82.5639 341° North 449 517 38,300 -1,950 Descending Atlanta Center
Sun 10:27:30 PM 32.0056 -82.6233 336° Northwest 449 517 35,400 -2,650 Descending Atlanta Center
Sun 10:28:30 PM 32.1069 -82.7172 322° Northwest 449 517 33,000 -1,200 Descending Atlanta Center
Sun 10:29:30 PM 32.2058 -82.8164 320° Northwest 460 529 33,000  Level Atlanta Center
Sun 10:30:30 PM 32.3072 -82.9133 321° Northwest 465 535 33,000  Level Atlanta Center
Sun 10:31:30 PM 32.4061 -83.0081 321° Northwest 470 541 33,000  Level Atlanta Center
Sun 10:32:30 PM 32.5069 -83.1078 320° Northwest 470 541 33,000  Level Atlanta Center
Sun 10:33:30 PM 32.6058 -83.2028 321° Northwest 470 541 33,000  Level Atlanta Center
Sun 10:34:30 PM 32.7086 -83.3056 320° Northwest 470 541 33,000 1,000 Level Atlanta Center
Sun 10:35:30 PM 32.8075 -83.4011 321° Northwest 465 535 35,000 -3,500 Climbing Atlanta Center
Sun 10:36:30 PM 32.9081 -83.5019 320° Northwest 465 535 26,000 -6,400 Descending Atlanta Center
Sun 10:37:30 PM 33.0067 -83.6003 320° Northwest 465 535 22,200 -3,650 Descending Atlanta Center
Sun 10:38:30 PM 33.0986 -83.6967 319° Northwest 465 535 18,700 -3,711 Descending Atlanta Center
Sun 10:39:07 PM 33.1500 -83.7500 319° Northwest 424 488 16,200 -3,231 Descending Atlanta TRACON
Sun 10:40:01 PM 33.2333 -83.8333 320° Northwest 403 464 13,800 -1,895 Descending Atlanta TRACON
Sun 10:41:01 PM 33.3000 -83.9333 309° West 382 440 12,600 -900 Descending Atlanta TRACON
Sun 10:42:01 PM 33.3667 -84.0333 309° West 369 425 12,000 -286 Descending Atlanta TRACON
Sun 10:43:07 PM 33.4333 -84.1333 309° West 367 422 12,000  Level Atlanta TRACON
Sun 10:43:55 PM 33.4833 -84.2000 312° West 331 381 12,000 -211 Level Atlanta TRACON
Sun 10:45:01 PM 33.5333 -84.3000 301° West 288 331 11,600 -1,250 Descending Atlanta TRACON
Sun 10:45:55 PM 33.5333 -84.3833 270° West 292 336 9,500 -2,090 Descending Atlanta TRACON
Sun 10:46:30 PM 33.5431 -84.4250 286° West 282 325 8,500 -2,571 Descending Atlanta Center
Sun 10:48:01 PM 33.5500 -84.5500 274° West 245 282 4,100 -2,276 Descending Atlanta TRACON
Sun 10:48:55 PM 33.6000 -84.5833 331° Northwest 235 270 3,000 -650 Descending Atlanta TRACON
Sun 10:50:01 PM 33.6500 -84.5667 16° North 196 226 2,800 -381 Descending Atlanta TRACON
Sun 10:51:01 PM 33.6500 -84.5167 90° East 138 159 2,200 -700 Descending Atlanta TRACON
Sun 10:52:01 PM 33.6500 -84.4667 90° East 137 158 1,400 -800 Descending Atlanta TRACON
Sun 10:54:00 PM 33.6367 -84.4279 64° Northeast  Level Estimated
Sun 11:01:00 PM 33.6367 -84.4279 64° Northeast  Level Estimated

Login

Don't have an account? Register now (free) for customized features, flight alerts, and more!